Terminal Aerodrome Forecast
Issued by NWS

Home | Current Version | Previous Version | Text Only | Print | Product List | Glossary Off
Versions: 1 2 3 4 5 6 7 8 9 10 11 12 13 14 15 16 17 18 19

504
FTUS43 KGRB 161728
TAFCWA
TAF
KCWA 161728Z 1618/1718 34008KT P6SM SCT025 SCT070
      TEMPO 1618/1621 BKN025
     FM162200 31006KT P6SM SCT025 BKN045
     FM170000 29005KT P6SM SCT120
     FM170900 26007KT P6SM BKN120
     FM171300 25009KT P6SM SCT120=

USA.gov is the U.S. government's official web portal to all federal, state and local government web resources and services.